sensor_id;sensor_type;location;lat;lon;timestamp;P1;durP1;ratioP1;P2;durP2;ratioP2
68106;SDS011;54892;47.488;19.026;2022-09-25T00:02:49;6.60;;;3.20;;
68106;SDS011;54892;47.488;19.026;2022-09-25T00:05:52;9.27;;;3.45;;
68106;SDS011;54892;47.488;19.026;2022-09-25T00:09:01;6.37;;;3.08;;
68106;SDS011;54892;47.488;19.026;2022-09-25T00:12:07;7.57;;;3.60;;
68106;SDS011;54892;47.488;19.026;2022-09-25T00:15:10;6.15;;;3.28;;
68106;SDS011;54892;47.488;19.026;2022-09-25T00:18:15;6.60;;;3.35;;
68106;SDS011;54892;47.488;19.026;2022-09-25T00:21:38;7.57;;;3.20;;
68106;SDS011;54892;47.488;19.026;2022-09-25T00:24:41;7.85;;;3.03;;
68106;SDS011;54892;47.488;19.026;2022-09-25T00:27:44;6.37;;;3.60;;
68106;SDS011;54892;47.488;19.026;2022-09-25T00:30:48;6.95;;;3.87;;
68106;SDS011;54892;47.488;19.026;2022-09-25T00:33:55;11.90;;;3.47;;
68106;SDS011;54892;47.488;19.026;2022-09-25T00:37:00;4.75;;;3.15;;
68106;SDS011;54892;47.488;19.026;2022-09-25T00:40:03;11.88;;;3.37;;
68106;SDS011;54892;47.488;19.026;2022-09-25T00:43:08;8.20;;;3.42;;
68106;SDS011;54892;47.488;19.026;2022-09-25T00:46:15;5.65;;;3.00;;
68106;SDS011;54892;47.488;19.026;2022-09-25T00:49:23;5.80;;;3.95;;
68106;SDS011;54892;47.488;19.026;2022-09-25T00:52:28;8.68;;;3.92;;
68106;SDS011;54892;47.488;19.026;2022-09-25T00:55:32;5.85;;;3.45;;
68106;SDS011;54892;47.488;19.026;2022-09-25T00:58:37;4.82;;;3.28;;
68106;SDS011;54892;47.488;19.026;2022-09-25T01:01:41;5.27;;;3.53;;
68106;SDS011;54892;47.488;19.026;2022-09-25T01:04:46;7.80;;;3.40;;
68106;SDS011;54892;47.488;19.026;2022-09-25T01:10:54;7.12;;;3.35;;
68106;SDS011;54892;47.488;19.026;2022-09-25T01:13:59;4.25;;;3.17;;
68106;SDS011;54892;47.488;19.026;2022-09-25T01:17:05;5.80;;;3.40;;
68106;SDS011;54892;47.488;19.026;2022-09-25T01:20:19;4.87;;;3.12;;
68106;SDS011;54892;47.488;19.026;2022-09-25T01:23:37;7.55;;;3.33;;
68106;SDS011;54892;47.488;19.026;2022-09-25T01:30:35;4.53;;;2.90;;
68106;SDS011;54892;47.488;19.026;2022-09-25T01:33:44;7.62;;;3.78;;
68106;SDS011;54892;47.488;19.026;2022-09-25T01:36:52;4.78;;;3.35;;
68106;SDS011;54892;47.488;19.026;2022-09-25T01:40:04;3.75;;;3.03;;
68106;SDS011;54892;47.488;19.026;2022-09-25T01:43:13;7.82;;;3.62;;
68106;SDS011;54892;47.488;19.026;2022-09-25T01:46:21;8.05;;;3.37;;
68106;SDS011;54892;47.488;19.026;2022-09-25T01:49:30;5.43;;;3.40;;
68106;SDS011;54892;47.488;19.026;2022-09-25T01:52:38;6.65;;;3.75;;
68106;SDS011;54892;47.488;19.026;2022-09-25T01:55:45;8.15;;;3.50;;
68106;SDS011;54892;47.488;19.026;2022-09-25T01:58:54;8.18;;;3.35;;
68106;SDS011;54892;47.488;19.026;2022-09-25T02:02:03;5.18;;;3.45;;
68106;SDS011;54892;47.488;19.026;2022-09-25T02:05:09;4.43;;;3.40;;
68106;SDS011;54892;47.488;19.026;2022-09-25T02:08:16;5.22;;;3.37;;
68106;SDS011;54892;47.488;19.026;2022-09-25T02:11:24;5.22;;;3.40;;
68106;SDS011;54892;47.488;19.026;2022-09-25T02:14:33;5.10;;;3.40;;
68106;SDS011;54892;47.488;19.026;2022-09-25T02:17:43;5.72;;;3.30;;
68106;SDS011;54892;47.488;19.026;2022-09-25T02:21:11;6.55;;;3.87;;
68106;SDS011;54892;47.488;19.026;2022-09-25T02:24:18;5.18;;;3.70;;
68106;SDS011;54892;47.488;19.026;2022-09-25T02:27:23;3.95;;;3.40;;
68106;SDS011;54892;47.488;19.026;2022-09-25T02:30:29;7.47;;;3.75;;
68106;SDS011;54892;47.488;19.026;2022-09-25T02:33:34;5.85;;;3.60;;
68106;SDS011;54892;47.488;19.026;2022-09-25T02:36:37;6.37;;;3.50;;
68106;SDS011;54892;47.488;19.026;2022-09-25T02:39:40;9.75;;;3.47;;
68106;SDS011;54892;47.488;19.026;2022-09-25T02:42:46;4.37;;;3.42;;
68106;SDS011;54892;47.488;19.026;2022-09-25T02:46:02;6.70;;;3.80;;
68106;SDS011;54892;47.488;19.026;2022-09-25T02:49:16;7.82;;;3.62;;
68106;SDS011;54892;47.488;19.026;2022-09-25T02:52:26;5.78;;;3.47;;
68106;SDS011;54892;47.488;19.026;2022-09-25T02:55:37;4.55;;;3.40;;
68106;SDS011;54892;47.488;19.026;2022-09-25T02:58:43;5.93;;;3.78;;
68106;SDS011;54892;47.488;19.026;2022-09-25T03:01:51;8.13;;;3.87;;
68106;SDS011;54892;47.488;19.026;2022-09-25T03:04:55;5.75;;;3.35;;
68106;SDS011;54892;47.488;19.026;2022-09-25T03:08:00;8.15;;;3.87;;
68106;SDS011;54892;47.488;19.026;2022-09-25T03:11:21;10.50;;;3.90;;
68106;SDS011;54892;47.488;19.026;2022-09-25T03:14:27;6.45;;;3.30;;
68106;SDS011;54892;47.488;19.026;2022-09-25T03:17:30;6.80;;;3.90;;
68106;SDS011;54892;47.488;19.026;2022-09-25T03:20:36;7.12;;;3.50;;
68106;SDS011;54892;47.488;19.026;2022-09-25T03:23:39;5.80;;;3.70;;
68106;SDS011;54892;47.488;19.026;2022-09-25T03:26:42;9.00;;;3.83;;
68106;SDS011;54892;47.488;19.026;2022-09-25T03:29:48;7.45;;;3.75;;
68106;SDS011;54892;47.488;19.026;2022-09-25T03:32:51;6.90;;;3.87;;
68106;SDS011;54892;47.488;19.026;2022-09-25T03:36:06;5.15;;;3.60;;
68106;SDS011;54892;47.488;19.026;2022-09-25T03:39:13;8.07;;;4.20;;
68106;SDS011;54892;47.488;19.026;2022-09-25T03:42:18;5.03;;;3.35;;
68106;SDS011;54892;47.488;19.026;2022-09-25T03:45:21;6.68;;;4.20;;
68106;SDS011;54892;47.488;19.026;2022-09-25T03:48:25;7.50;;;3.97;;
68106;SDS011;54892;47.488;19.026;2022-09-25T03:51:30;7.32;;;3.75;;
68106;SDS011;54892;47.488;19.026;2022-09-25T03:54:34;10.13;;;3.97;;
68106;SDS011;54892;47.488;19.026;2022-09-25T03:57:36;6.20;;;3.75;;
68106;SDS011;54892;47.488;19.026;2022-09-25T04:00:40;8.60;;;3.97;;
68106;SDS011;54892;47.488;19.026;2022-09-25T04:03:43;6.53;;;4.20;;
68106;SDS011;54892;47.488;19.026;2022-09-25T04:06:49;11.93;;;4.90;;
68106;SDS011;54892;47.488;19.026;2022-09-25T04:09:52;11.52;;;3.65;;
68106;SDS011;54892;47.488;19.026;2022-09-25T04:12:55;5.90;;;3.78;;
68106;SDS011;54892;47.488;19.026;2022-09-25T04:15:59;6.53;;;3.45;;
68106;SDS011;54892;47.488;19.026;2022-09-25T04:19:04;9.73;;;4.05;;
68106;SDS011;54892;47.488;19.026;2022-09-25T04:22:09;5.95;;;3.95;;
68106;SDS011;54892;47.488;19.026;2022-09-25T04:25:12;9.82;;;3.65;;
68106;SDS011;54892;47.488;19.026;2022-09-25T04:28:15;7.93;;;3.40;;
68106;SDS011;54892;47.488;19.026;2022-09-25T04:31:18;5.97;;;3.40;;
68106;SDS011;54892;47.488;19.026;2022-09-25T04:34:21;6.72;;;3.80;;
68106;SDS011;54892;47.488;19.026;2022-09-25T04:37:25;5.45;;;3.78;;
68106;SDS011;54892;47.488;19.026;2022-09-25T04:40:28;8.45;;;4.68;;
68106;SDS011;54892;47.488;19.026;2022-09-25T04:43:33;4.10;;;3.30;;
68106;SDS011;54892;47.488;19.026;2022-09-25T04:46:37;7.50;;;4.43;;
68106;SDS011;54892;47.488;19.026;2022-09-25T04:49:40;7.95;;;4.43;;
68106;SDS011;54892;47.488;19.026;2022-09-25T04:52:45;4.50;;;3.50;;
68106;SDS011;54892;47.488;19.026;2022-09-25T04:55:50;7.18;;;4.55;;
68106;SDS011;54892;47.488;19.026;2022-09-25T04:58:54;5.43;;;4.00;;
68106;SDS011;54892;47.488;19.026;2022-09-25T05:01:57;6.80;;;3.70;;
68106;SDS011;54892;47.488;19.026;2022-09-25T05:05:00;6.32;;;3.80;;
68106;SDS011;54892;47.488;19.026;2022-09-25T05:08:05;10.05;;;4.22;;
68106;SDS011;54892;47.488;19.026;2022-09-25T05:11:08;6.93;;;4.30;;
68106;SDS011;54892;47.488;19.026;2022-09-25T05:14:11;8.35;;;4.07;;
68106;SDS011;54892;47.488;19.026;2022-09-25T05:17:15;7.03;;;4.50;;
68106;SDS011;54892;47.488;19.026;2022-09-25T05:20:18;9.07;;;4.32;;
68106;SDS011;54892;47.488;19.026;2022-09-25T05:23:22;8.90;;;4.30;;
68106;SDS011;54892;47.488;19.026;2022-09-25T05:26:25;6.45;;;3.87;;
68106;SDS011;54892;47.488;19.026;2022-09-25T05:29:30;6.47;;;4.10;;
68106;SDS011;54892;47.488;19.026;2022-09-25T05:32:33;8.70;;;4.72;;
68106;SDS011;54892;47.488;19.026;2022-09-25T05:35:36;8.60;;;4.37;;
68106;SDS011;54892;47.488;19.026;2022-09-25T05:38:41;6.68;;;4.20;;
68106;SDS011;54892;47.488;19.026;2022-09-25T05:41:44;6.40;;;3.78;;
68106;SDS011;54892;47.488;19.026;2022-09-25T05:44:47;6.97;;;4.40;;
68106;SDS011;54892;47.488;19.026;2022-09-25T05:47:58;7.22;;;3.85;;
68106;SDS011;54892;47.488;19.026;2022-09-25T05:51:02;7.87;;;4.30;;
68106;SDS011;54892;47.488;19.026;2022-09-25T05:54:08;7.30;;;4.20;;
68106;SDS011;54892;47.488;19.026;2022-09-25T05:57:11;9.65;;;4.45;;
68106;SDS011;54892;47.488;19.026;2022-09-25T06:00:14;11.73;;;4.10;;
68106;SDS011;54892;47.488;19.026;2022-09-25T06:03:18;8.60;;;4.68;;
68106;SDS011;54892;47.488;19.026;2022-09-25T06:06:21;7.20;;;4.25;;
68106;SDS011;54892;47.488;19.026;2022-09-25T06:09:28;8.60;;;4.68;;
68106;SDS011;54892;47.488;19.026;2022-09-25T06:12:31;7.72;;;4.43;;
68106;SDS011;54892;47.488;19.026;2022-09-25T06:15:36;7.22;;;4.75;;
68106;SDS011;54892;47.488;19.026;2022-09-25T06:18:42;10.80;;;4.80;;
68106;SDS011;54892;47.488;19.026;2022-09-25T06:21:45;6.37;;;4.25;;
68106;SDS011;54892;47.488;19.026;2022-09-25T06:24:50;6.07;;;4.62;;
68106;SDS011;54892;47.488;19.026;2022-09-25T06:27:53;9.95;;;4.78;;
68106;SDS011;54892;47.488;19.026;2022-09-25T06:30:58;7.90;;;5.07;;
68106;SDS011;54892;47.488;19.026;2022-09-25T06:34:01;8.32;;;5.05;;
68106;SDS011;54892;47.488;19.026;2022-09-25T06:37:05;7.87;;;4.75;;
68106;SDS011;54892;47.488;19.026;2022-09-25T06:40:10;14.70;;;5.20;;
68106;SDS011;54892;47.488;19.026;2022-09-25T06:43:14;6.57;;;4.77;;
68106;SDS011;54892;47.488;19.026;2022-09-25T06:46:18;6.80;;;4.80;;
68106;SDS011;54892;47.488;19.026;2022-09-25T06:49:21;9.90;;;5.20;;
68106;SDS011;54892;47.488;19.026;2022-09-25T06:52:24;6.60;;;4.75;;
68106;SDS011;54892;47.488;19.026;2022-09-25T06:55:29;7.05;;;4.40;;
68106;SDS011;54892;47.488;19.026;2022-09-25T06:58:35;8.40;;;4.75;;
68106;SDS011;54892;47.488;19.026;2022-09-25T07:01:39;7.15;;;4.93;;
68106;SDS011;54892;47.488;19.026;2022-09-25T07:04:42;7.80;;;5.05;;
68106;SDS011;54892;47.488;19.026;2022-09-25T07:07:44;6.60;;;4.50;;
68106;SDS011;54892;47.488;19.026;2022-09-25T07:10:49;7.35;;;4.93;;
68106;SDS011;54892;47.488;19.026;2022-09-25T07:13:53;9.50;;;4.40;;
68106;SDS011;54892;47.488;19.026;2022-09-25T07:16:56;7.80;;;4.80;;
68106;SDS011;54892;47.488;19.026;2022-09-25T07:19:59;6.43;;;4.72;;
68106;SDS011;54892;47.488;19.026;2022-09-25T07:23:03;9.45;;;4.47;;
68106;SDS011;54892;47.488;19.026;2022-09-25T07:26:08;10.45;;;4.53;;
68106;SDS011;54892;47.488;19.026;2022-09-25T07:29:13;7.53;;;4.78;;
68106;SDS011;54892;47.488;19.026;2022-09-25T07:32:17;9.80;;;4.40;;
68106;SDS011;54892;47.488;19.026;2022-09-25T07:35:21;8.93;;;4.93;;
68106;SDS011;54892;47.488;19.026;2022-09-25T07:38:24;12.68;;;4.53;;
68106;SDS011;54892;47.488;19.026;2022-09-25T07:41:29;8.52;;;4.32;;
68106;SDS011;54892;47.488;19.026;2022-09-25T07:44:32;8.65;;;4.90;;
68106;SDS011;54892;47.488;19.026;2022-09-25T07:47:38;7.57;;;4.20;;
68106;SDS011;54892;47.488;19.026;2022-09-25T07:50:41;9.45;;;5.07;;
68106;SDS011;54892;47.488;19.026;2022-09-25T07:53:45;7.87;;;4.55;;
68106;SDS011;54892;47.488;19.026;2022-09-25T07:56:50;6.43;;;4.50;;
68106;SDS011;54892;47.488;19.026;2022-09-25T07:59:53;9.47;;;5.07;;
68106;SDS011;54892;47.488;19.026;2022-09-25T08:02:56;10.40;;;5.37;;
68106;SDS011;54892;47.488;19.026;2022-09-25T08:06:01;8.02;;;4.47;;
68106;SDS011;54892;47.488;19.026;2022-09-25T08:09:05;8.00;;;5.30;;
68106;SDS011;54892;47.488;19.026;2022-09-25T08:12:11;10.65;;;5.12;;
68106;SDS011;54892;47.488;19.026;2022-09-25T08:15:15;9.15;;;5.12;;
68106;SDS011;54892;47.488;19.026;2022-09-25T08:18:19;7.00;;;5.03;;
68106;SDS011;54892;47.488;19.026;2022-09-25T08:21:22;7.40;;;4.50;;
68106;SDS011;54892;47.488;19.026;2022-09-25T08:24:25;7.12;;;4.97;;
68106;SDS011;54892;47.488;19.026;2022-09-25T08:27:30;10.10;;;5.05;;
68106;SDS011;54892;47.488;19.026;2022-09-25T08:30:33;9.20;;;5.20;;
68106;SDS011;54892;47.488;19.026;2022-09-25T08:33:38;8.23;;;5.30;;
68106;SDS011;54892;47.488;19.026;2022-09-25T08:36:46;6.97;;;5.00;;
68106;SDS011;54892;47.488;19.026;2022-09-25T08:39:50;9.00;;;5.35;;
68106;SDS011;54892;47.488;19.026;2022-09-25T08:42:55;9.55;;;5.20;;
68106;SDS011;54892;47.488;19.026;2022-09-25T08:45:59;8.43;;;5.05;;
68106;SDS011;54892;47.488;19.026;2022-09-25T08:49:24;9.52;;;4.90;;
68106;SDS011;54892;47.488;19.026;2022-09-25T08:52:31;9.90;;;4.78;;
68106;SDS011;54892;47.488;19.026;2022-09-25T08:55:38;9.95;;;5.25;;
68106;SDS011;54892;47.488;19.026;2022-09-25T08:59:03;10.77;;;4.95;;
68106;SDS011;54892;47.488;19.026;2022-09-25T09:02:13;7.85;;;4.87;;
68106;SDS011;54892;47.488;19.026;2022-09-25T09:05:18;7.47;;;4.40;;
68106;SDS011;54892;47.488;19.026;2022-09-25T09:11:30;7.70;;;4.70;;
68106;SDS011;54892;47.488;19.026;2022-09-25T09:14:40;6.45;;;3.72;;
68106;SDS011;54892;47.488;19.026;2022-09-25T09:17:46;3.28;;;2.42;;
68106;SDS011;54892;47.488;19.026;2022-09-25T09:20:50;4.18;;;2.50;;
68106;SDS011;54892;47.488;19.026;2022-09-25T09:23:56;3.25;;;2.25;;
68106;SDS011;54892;47.488;19.026;2022-09-25T09:27:13;4.28;;;2.22;;
68106;SDS011;54892;47.488;19.026;2022-09-25T09:30:26;2.65;;;1.52;;
68106;SDS011;54892;47.488;19.026;2022-09-25T09:33:40;3.80;;;1.30;;
68106;SDS011;54892;47.488;19.026;2022-09-25T09:36:51;1.58;;;1.27;;
68106;SDS011;54892;47.488;19.026;2022-09-25T09:40:06;2.30;;;1.30;;
68106;SDS011;54892;47.488;19.026;2022-09-25T09:43:21;4.60;;;1.87;;
68106;SDS011;54892;47.488;19.026;2022-09-25T09:46:38;2.40;;;1.60;;
68106;SDS011;54892;47.488;19.026;2022-09-25T09:49:49;4.12;;;1.15;;
68106;SDS011;54892;47.488;19.026;2022-09-25T09:52:57;2.28;;;1.37;;
68106;SDS011;54892;47.488;19.026;2022-09-25T09:56:04;3.42;;;1.40;;
68106;SDS011;54892;47.488;19.026;2022-09-25T09:59:15;3.58;;;1.00;;
68106;SDS011;54892;47.488;19.026;2022-09-25T10:02:31;3.85;;;1.25;;
68106;SDS011;54892;47.488;19.026;2022-09-25T10:05:40;2.20;;;1.08;;
68106;SDS011;54892;47.488;19.026;2022-09-25T10:08:46;5.65;;;1.40;;
68106;SDS011;54892;47.488;19.026;2022-09-25T10:11:51;2.22;;;1.10;;
68106;SDS011;54892;47.488;19.026;2022-09-25T10:15:01;2.28;;;1.40;;
68106;SDS011;54892;47.488;19.026;2022-09-25T10:18:07;1.87;;;1.52;;
68106;SDS011;54892;47.488;19.026;2022-09-25T10:21:12;2.70;;;1.27;;
68106;SDS011;54892;47.488;19.026;2022-09-25T10:27:40;8.15;;;1.50;;
68106;SDS011;54892;47.488;19.026;2022-09-25T10:30:46;6.05;;;1.50;;
68106;SDS011;54892;47.488;19.026;2022-09-25T10:33:59;4.47;;;1.35;;
68106;SDS011;54892;47.488;19.026;2022-09-25T10:37:12;2.28;;;1.33;;
68106;SDS011;54892;47.488;19.026;2022-09-25T10:40:23;4.50;;;1.87;;
68106;SDS011;54892;47.488;19.026;2022-09-25T10:43:28;1.80;;;1.50;;
68106;SDS011;54892;47.488;19.026;2022-09-25T10:46:32;2.97;;;1.65;;
68106;SDS011;54892;47.488;19.026;2022-09-25T10:49:54;7.05;;;1.67;;
68106;SDS011;54892;47.488;19.026;2022-09-25T10:53:23;5.28;;;1.33;;
68106;SDS011;54892;47.488;19.026;2022-09-25T10:56:30;4.00;;;1.50;;
68106;SDS011;54892;47.488;19.026;2022-09-25T10:59:39;2.00;;;1.33;;
68106;SDS011;54892;47.488;19.026;2022-09-25T11:02:50;2.20;;;1.70;;
68106;SDS011;54892;47.488;19.026;2022-09-25T11:05:58;2.58;;;1.87;;
68106;SDS011;54892;47.488;19.026;2022-09-25T11:09:05;3.45;;;2.08;;
68106;SDS011;54892;47.488;19.026;2022-09-25T11:12:11;3.25;;;1.90;;
68106;SDS011;54892;47.488;19.026;2022-09-25T11:15:19;3.03;;;1.90;;
68106;SDS011;54892;47.488;19.026;2022-09-25T11:18:33;6.57;;;2.60;;
68106;SDS011;54892;47.488;19.026;2022-09-25T11:21:43;5.80;;;2.92;;
68106;SDS011;54892;47.488;19.026;2022-09-25T11:25:02;5.40;;;1.98;;
68106;SDS011;54892;47.488;19.026;2022-09-25T11:28:14;3.42;;;1.60;;
68106;SDS011;54892;47.488;19.026;2022-09-25T11:31:27;3.78;;;1.80;;
68106;SDS011;54892;47.488;19.026;2022-09-25T11:34:47;3.33;;;1.50;;
68106;SDS011;54892;47.488;19.026;2022-09-25T11:38:06;3.85;;;1.70;;
68106;SDS011;54892;47.488;19.026;2022-09-25T11:41:19;2.22;;;1.37;;
68106;SDS011;54892;47.488;19.026;2022-09-25T11:44:41;1.35;;;1.20;;
68106;SDS011;54892;47.488;19.026;2022-09-25T11:47:55;3.30;;;1.58;;
68106;SDS011;54892;47.488;19.026;2022-09-25T11:51:06;2.70;;;1.60;;
68106;SDS011;54892;47.488;19.026;2022-09-25T11:54:21;2.60;;;1.40;;
68106;SDS011;54892;47.488;19.026;2022-09-25T11:57:35;4.18;;;1.27;;
68106;SDS011;54892;47.488;19.026;2022-09-25T12:00:51;2.95;;;1.50;;
68106;SDS011;54892;47.488;19.026;2022-09-25T12:04:19;2.53;;;1.50;;
68106;SDS011;54892;47.488;19.026;2022-09-25T12:07:42;1.73;;;1.25;;
68106;SDS011;54892;47.488;19.026;2022-09-25T12:11:07;1.62;;;1.40;;
68106;SDS011;54892;47.488;19.026;2022-09-25T12:14:19;1.40;;;1.17;;
68106;SDS011;54892;47.488;19.026;2022-09-25T12:17:28;4.53;;;2.22;;
68106;SDS011;54892;47.488;19.026;2022-09-25T12:20:39;4.80;;;1.48;;
68106;SDS011;54892;47.488;19.026;2022-09-25T12:23:49;8.63;;;3.10;;
68106;SDS011;54892;47.488;19.026;2022-09-25T12:27:02;6.07;;;1.87;;
68106;SDS011;54892;47.488;19.026;2022-09-25T12:30:15;1.70;;;1.40;;
68106;SDS011;54892;47.488;19.026;2022-09-25T12:33:22;6.90;;;2.42;;
68106;SDS011;54892;47.488;19.026;2022-09-25T12:36:32;4.60;;;1.30;;
68106;SDS011;54892;47.488;19.026;2022-09-25T12:39:39;1.73;;;1.25;;
68106;SDS011;54892;47.488;19.026;2022-09-25T12:42:53;1.33;;;1.00;;
68106;SDS011;54892;47.488;19.026;2022-09-25T12:46:02;1.10;;;0.90;;
68106;SDS011;54892;47.488;19.026;2022-09-25T12:49:12;4.72;;;1.40;;
68106;SDS011;54892;47.488;19.026;2022-09-25T12:52:21;2.50;;;1.55;;
68106;SDS011;54892;47.488;19.026;2022-09-25T12:55:31;1.35;;;1.10;;
68106;SDS011;54892;47.488;19.026;2022-09-25T12:58:48;2.10;;;1.37;;
68106;SDS011;54892;47.488;19.026;2022-09-25T13:01:59;3.15;;;1.55;;
68106;SDS011;54892;47.488;19.026;2022-09-25T13:05:08;2.78;;;1.62;;
68106;SDS011;54892;47.488;19.026;2022-09-25T13:08:24;6.55;;;2.60;;
68106;SDS011;54892;47.488;19.026;2022-09-25T13:11:36;1.87;;;1.67;;
68106;SDS011;54892;47.488;19.026;2022-09-25T13:14:48;2.00;;;1.60;;
68106;SDS011;54892;47.488;19.026;2022-09-25T13:17:54;2.22;;;1.70;;
68106;SDS011;54892;47.488;19.026;2022-09-25T13:21:11;3.90;;;1.60;;
68106;SDS011;54892;47.488;19.026;2022-09-25T13:24:25;1.80;;;1.60;;
68106;SDS011;54892;47.488;19.026;2022-09-25T13:27:30;4.85;;;1.70;;
68106;SDS011;54892;47.488;19.026;2022-09-25T13:30:52;2.67;;;1.83;;
68106;SDS011;54892;47.488;19.026;2022-09-25T13:34:02;2.53;;;1.95;;
68106;SDS011;54892;47.488;19.026;2022-09-25T13:37:08;5.37;;;2.15;;
68106;SDS011;54892;47.488;19.026;2022-09-25T13:40:14;4.50;;;2.22;;
68106;SDS011;54892;47.488;19.026;2022-09-25T13:43:37;5.95;;;2.30;;
68106;SDS011;54892;47.488;19.026;2022-09-25T13:46:41;4.07;;;2.00;;
68106;SDS011;54892;47.488;19.026;2022-09-25T13:49:48;3.30;;;2.10;;
68106;SDS011;54892;47.488;19.026;2022-09-25T13:52:55;3.47;;;1.73;;
68106;SDS011;54892;47.488;19.026;2022-09-25T13:59:48;3.75;;;1.90;;
68106;SDS011;54892;47.488;19.026;2022-09-25T14:03:05;3.85;;;2.60;;
68106;SDS011;54892;47.488;19.026;2022-09-25T14:06:33;4.43;;;2.70;;
68106;SDS011;54892;47.488;19.026;2022-09-25T14:09:41;3.75;;;2.35;;
68106;SDS011;54892;47.488;19.026;2022-09-25T14:12:48;3.53;;;2.40;;
68106;SDS011;54892;47.488;19.026;2022-09-25T14:15:53;5.37;;;2.72;;
68106;SDS011;54892;47.488;19.026;2022-09-25T14:19:02;5.05;;;2.80;;
68106;SDS011;54892;47.488;19.026;2022-09-25T14:22:14;2.30;;;2.10;;
68106;SDS011;54892;47.488;19.026;2022-09-25T14:25:25;3.87;;;1.95;;
68106;SDS011;54892;47.488;19.026;2022-09-25T14:28:34;2.37;;;1.95;;
68106;SDS011;54892;47.488;19.026;2022-09-25T14:31:49;2.58;;;2.30;;
68106;SDS011;54892;47.488;19.026;2022-09-25T14:35:10;3.67;;;2.00;;
68106;SDS011;54892;47.488;19.026;2022-09-25T14:38:32;4.35;;;1.90;;
68106;SDS011;54892;47.488;19.026;2022-09-25T14:41:50;4.50;;;2.25;;
68106;SDS011;54892;47.488;19.026;2022-09-25T14:48:37;5.05;;;3.42;;
68106;SDS011;54892;47.488;19.026;2022-09-25T14:51:45;4.90;;;2.30;;
68106;SDS011;54892;47.488;19.026;2022-09-25T14:54:51;3.53;;;2.42;;
68106;SDS011;54892;47.488;19.026;2022-09-25T14:57:57;2.92;;;2.40;;
68106;SDS011;54892;47.488;19.026;2022-09-25T15:01:06;3.22;;;2.70;;
68106;SDS011;54892;47.488;19.026;2022-09-25T15:04:23;2.90;;;2.50;;
68106;SDS011;54892;47.488;19.026;2022-09-25T15:07:29;2.53;;;2.33;;
68106;SDS011;54892;47.488;19.026;2022-09-25T15:10:33;3.75;;;2.83;;
68106;SDS011;54892;47.488;19.026;2022-09-25T15:13:38;2.85;;;1.92;;
68106;SDS011;54892;47.488;19.026;2022-09-25T15:16:42;1.92;;;1.70;;
68106;SDS011;54892;47.488;19.026;2022-09-25T15:20:03;2.97;;;2.10;;
68106;SDS011;54892;47.488;19.026;2022-09-25T15:23:14;3.10;;;2.10;;
68106;SDS011;54892;47.488;19.026;2022-09-25T15:26:20;3.72;;;2.75;;
68106;SDS011;54892;47.488;19.026;2022-09-25T15:29:24;3.47;;;2.80;;
68106;SDS011;54892;47.488;19.026;2022-09-25T15:32:29;4.12;;;2.70;;
68106;SDS011;54892;47.488;19.026;2022-09-25T15:35:40;3.72;;;2.08;;
68106;SDS011;54892;47.488;19.026;2022-09-25T15:38:50;3.58;;;2.30;;
68106;SDS011;54892;47.488;19.026;2022-09-25T15:42:03;2.60;;;2.10;;
68106;SDS011;54892;47.488;19.026;2022-09-25T15:45:09;3.15;;;2.10;;
68106;SDS011;54892;47.488;19.026;2022-09-25T15:48:37;2.97;;;2.20;;
68106;SDS011;54892;47.488;19.026;2022-09-25T15:51:44;6.37;;;2.17;;
68106;SDS011;54892;47.488;19.026;2022-09-25T15:54:54;3.60;;;2.40;;
68106;SDS011;54892;47.488;19.026;2022-09-25T15:58:03;4.53;;;2.55;;
68106;SDS011;54892;47.488;19.026;2022-09-25T16:01:13;3.35;;;2.58;;
68106;SDS011;54892;47.488;19.026;2022-09-25T16:04:37;4.47;;;2.53;;
68106;SDS011;54892;47.488;19.026;2022-09-25T16:07:51;5.47;;;2.60;;
68106;SDS011;54892;47.488;19.026;2022-09-25T16:14:25;4.30;;;2.20;;
68106;SDS011;54892;47.488;19.026;2022-09-25T16:17:31;2.83;;;2.17;;
68106;SDS011;54892;47.488;19.026;2022-09-25T16:20:37;3.47;;;2.47;;
68106;SDS011;54892;47.488;19.026;2022-09-25T16:23:43;5.30;;;3.30;;
68106;SDS011;54892;47.488;19.026;2022-09-25T16:26:57;4.95;;;3.40;;
68106;SDS011;54892;47.488;19.026;2022-09-25T16:30:03;6.97;;;3.80;;
68106;SDS011;54892;47.488;19.026;2022-09-25T16:33:13;5.65;;;3.67;;
68106;SDS011;54892;47.488;19.026;2022-09-25T16:36:22;6.47;;;3.55;;
68106;SDS011;54892;47.488;19.026;2022-09-25T16:39:29;4.03;;;3.30;;
68106;SDS011;54892;47.488;19.026;2022-09-25T16:42:37;6.30;;;3.58;;
68106;SDS011;54892;47.488;19.026;2022-09-25T16:45:41;11.85;;;4.05;;
68106;SDS011;54892;47.488;19.026;2022-09-25T16:48:59;7.30;;;3.65;;
68106;SDS011;54892;47.488;19.026;2022-09-25T16:52:05;5.78;;;3.60;;
68106;SDS011;54892;47.488;19.026;2022-09-25T16:55:17;5.37;;;3.67;;
68106;SDS011;54892;47.488;19.026;2022-09-25T16:58:25;6.82;;;3.58;;
68106;SDS011;54892;47.488;19.026;2022-09-25T17:01:28;5.13;;;3.77;;
68106;SDS011;54892;47.488;19.026;2022-09-25T17:04:32;5.35;;;3.12;;
68106;SDS011;54892;47.488;19.026;2022-09-25T17:07:39;5.40;;;3.55;;
68106;SDS011;54892;47.488;19.026;2022-09-25T17:10:42;8.48;;;3.58;;
68106;SDS011;54892;47.488;19.026;2022-09-25T17:16:53;4.28;;;3.17;;
68106;SDS011;54892;47.488;19.026;2022-09-25T17:19:57;4.05;;;2.85;;
68106;SDS011;54892;47.488;19.026;2022-09-25T17:23:00;6.22;;;3.75;;
68106;SDS011;54892;47.488;19.026;2022-09-25T17:26:04;5.20;;;3.15;;
68106;SDS011;54892;47.488;19.026;2022-09-25T17:29:09;3.95;;;3.08;;
68106;SDS011;54892;47.488;19.026;2022-09-25T17:32:13;3.65;;;3.10;;
68106;SDS011;54892;47.488;19.026;2022-09-25T17:35:25;6.23;;;3.40;;
68106;SDS011;54892;47.488;19.026;2022-09-25T17:38:33;8.15;;;3.47;;
68106;SDS011;54892;47.488;19.026;2022-09-25T17:41:36;7.97;;;3.62;;
68106;SDS011;54892;47.488;19.026;2022-09-25T17:44:42;7.12;;;4.43;;
68106;SDS011;54892;47.488;19.026;2022-09-25T17:47:48;8.35;;;4.25;;
68106;SDS011;54892;47.488;19.026;2022-09-25T17:50:51;6.82;;;4.10;;
68106;SDS011;54892;47.488;19.026;2022-09-25T17:53:56;6.90;;;4.23;;
68106;SDS011;54892;47.488;19.026;2022-09-25T17:57:02;7.00;;;4.37;;
68106;SDS011;54892;47.488;19.026;2022-09-25T18:00:08;8.48;;;4.80;;
68106;SDS011;54892;47.488;19.026;2022-09-25T18:03:12;7.22;;;5.50;;
68106;SDS011;54892;47.488;19.026;2022-09-25T18:06:17;8.30;;;6.15;;
68106;SDS011;54892;47.488;19.026;2022-09-25T18:09:21;7.95;;;5.95;;
68106;SDS011;54892;47.488;19.026;2022-09-25T18:12:25;9.00;;;5.90;;
68106;SDS011;54892;47.488;19.026;2022-09-25T18:15:30;9.90;;;5.80;;
68106;SDS011;54892;47.488;19.026;2022-09-25T18:18:35;11.18;;;6.50;;
68106;SDS011;54892;47.488;19.026;2022-09-25T18:21:56;10.48;;;6.72;;
68106;SDS011;54892;47.488;19.026;2022-09-25T18:25:14;9.25;;;6.05;;
68106;SDS011;54892;47.488;19.026;2022-09-25T18:28:17;10.02;;;6.05;;
68106;SDS011;54892;47.488;19.026;2022-09-25T18:31:22;8.82;;;5.93;;
68106;SDS011;54892;47.488;19.026;2022-09-25T18:34:26;15.68;;;7.25;;
68106;SDS011;54892;47.488;19.026;2022-09-25T18:37:30;7.65;;;6.65;;
68106;SDS011;54892;47.488;19.026;2022-09-25T18:40:33;8.98;;;6.50;;
68106;SDS011;54892;47.488;19.026;2022-09-25T18:43:37;10.23;;;6.75;;
68106;SDS011;54892;47.488;19.026;2022-09-25T18:46:43;10.77;;;6.95;;
68106;SDS011;54892;47.488;19.026;2022-09-25T18:49:46;9.40;;;7.68;;
68106;SDS011;54892;47.488;19.026;2022-09-25T18:52:51;11.38;;;8.30;;
68106;SDS011;54892;47.488;19.026;2022-09-25T18:55:54;8.82;;;7.20;;
68106;SDS011;54892;47.488;19.026;2022-09-25T18:58:59;12.93;;;7.43;;
68106;SDS011;54892;47.488;19.026;2022-09-25T19:02:05;11.48;;;7.18;;